createdAt,value
2022-11-26T00:00:03.276Z,72.28
2022-11-26T00:00:47.680Z,69.31
2022-11-26T00:01:33.341Z,73.27
2022-11-26T00:02:18.036Z,72.28
2022-11-26T00:03:03.390Z,72.28
2022-11-26T00:03:48.597Z,72.28
2022-11-26T00:04:33.033Z,72.28
2022-11-26T00:05:18.911Z,73.27
2022-11-26T00:06:03.460Z,68.32
2022-11-26T00:06:48.209Z,74.26
2022-11-26T00:07:33.410Z,75.25
2022-11-26T00:08:18.422Z,75.25
2022-11-26T00:09:03.775Z,75.25
2022-11-26T00:09:48.633Z,73.07
2022-11-26T00:10:33.367Z,78.12
2022-11-26T00:11:18.542Z,75.15
2022-11-26T00:12:03.736Z,77.13
2022-11-26T00:12:49.029Z,80.10
2022-11-26T00:13:33.526Z,79.00
2022-11-26T00:14:18.566Z,78.01
2022-11-26T00:15:05.265Z,68.13
2022-11-26T00:15:48.376Z,57.27
2022-11-26T00:16:34.592Z,83.66
2022-11-26T00:17:18.867Z,81.96
2022-11-26T00:18:03.947Z,81.69
2022-11-26T00:18:49.008Z,79.11
2022-11-26T00:19:33.856Z,76.14
2022-11-26T00:20:19.456Z,99.58
2022-11-26T00:21:04.279Z,98.75
2022-11-26T00:21:49.273Z,100.72
2022-11-26T00:22:34.290Z,99.73
2022-11-26T00:23:19.346Z,95.78
2022-11-26T00:24:04.297Z,85.91
2022-11-26T00:24:49.498Z,89.86
2022-11-26T00:25:34.585Z,91.83
2022-11-26T00:26:19.480Z,92.82
2022-11-26T00:27:04.838Z,93.81
2022-11-26T00:27:49.712Z,92.82
2022-11-26T00:28:34.643Z,92.82
2022-11-26T00:29:19.635Z,94.80
2022-11-26T00:30:05.063Z,86.90
2022-11-26T00:30:49.705Z,87.75
2022-11-26T00:31:35.183Z,92.68
2022-11-26T00:32:19.823Z,91.69
2022-11-26T00:33:04.869Z,85.77
2022-11-26T00:33:50.072Z,84.48
2022-11-26T00:34:35.373Z,96.27
2022-11-26T00:35:20.039Z,96.27
2022-11-26T00:36:05.101Z,98.23
2022-11-26T00:36:50.151Z,95.09
2022-11-26T00:37:35.127Z,93.13
2022-11-26T00:38:20.183Z,90.19
2022-11-26T00:39:05.755Z,89.39
2022-11-26T00:39:50.382Z,91.36
2022-11-26T00:40:35.332Z,92.34
2022-11-26T00:41:20.803Z,90.38
2022-11-26T00:42:05.583Z,93.32
2022-11-26T00:42:50.894Z,88.03
2022-11-26T00:43:35.584Z,89.39
2022-11-26T00:44:20.719Z,89.01
2022-11-26T00:45:05.696Z,88.41
2022-11-26T00:45:50.646Z,81.96
2022-11-26T00:46:35.988Z,89.39
2022-11-26T00:47:20.947Z,98.23
2022-11-26T00:48:06.783Z,96.45
2022-11-26T00:48:50.859Z,88.23
2022-11-26T00:49:36.322Z,91.53
2022-11-26T00:50:21.584Z,92.34
2022-11-26T00:51:06.436Z,98.23
2022-11-26T00:51:51.487Z,89.39
2022-11-26T00:52:36.551Z,149.32
2022-11-26T00:53:21.498Z,90.74
2022-11-26T00:54:06.885Z,89.39
2022-11-26T00:54:51.702Z,87.43
2022-11-26T00:55:37.262Z,92.34
2022-11-26T00:56:22.036Z,87.43
2022-11-26T00:57:06.989Z,92.34
2022-11-26T00:57:52.045Z,92.34
2022-11-26T00:58:37.102Z,93.32
2022-11-26T00:59:22.163Z,92.34
2022-11-26T01:00:07.015Z,93.32
2022-11-26T01:00:52.285Z,92.34
2022-11-26T01:01:37.323Z,94.31
2022-11-26T01:02:22.524Z,92.34
2022-11-26T01:03:08.178Z,96.27
2022-11-26T01:03:52.397Z,93.32
2022-11-26T01:04:37.802Z,95.29
2022-11-26T01:05:22.504Z,90.96
2022-11-26T01:06:07.771Z,93.13
2022-11-26T01:06:52.971Z,95.09
2022-11-26T01:07:38.735Z,92.34
2022-11-26T01:08:23.034Z,48.68
2022-11-26T01:09:07.899Z,48.68
2022-11-26T01:09:53.162Z,105.11
2022-11-26T01:10:37.901Z,100.49
2022-11-26T01:11:22.898Z,101.18
2022-11-26T01:12:08.018Z,95.29
2022-11-26T01:12:52.989Z,105.11
2022-11-26T01:13:37.919Z,108.57
2022-11-26T01:14:23.131Z,110.02
2022-11-26T01:15:08.235Z,108.57
2022-11-26T01:15:53.317Z,109.04
2022-11-26T01:16:38.225Z,106.09
2022-11-26T01:17:23.250Z,103.15
2022-11-26T01:18:08.465Z,93.90
2022-11-26T01:18:53.940Z,106.09
2022-11-26T01:19:38.065Z,103.91
2022-11-26T01:20:25.374Z,94.31
2022-11-26T01:21:08.794Z,97.57
2022-11-26T01:21:53.837Z,93.32
2022-11-26T01:22:39.111Z,93.32
2022-11-26T01:23:23.593Z,102.16
2022-11-26T01:24:08.710Z,111.99
2022-11-26T01:24:53.971Z,111.99
2022-11-26T01:25:38.728Z,112.97
2022-11-26T01:26:23.877Z,112.97
2022-11-26T01:27:08.962Z,111.00
2022-11-26T01:27:54.098Z,111.99
2022-11-26T01:28:39.067Z,104.13
2022-11-26T01:29:24.210Z,106.09
2022-11-26T01:30:09.098Z,111.00
2022-11-26T01:30:54.320Z,117.88
2022-11-26T01:31:39.235Z,115.92
2022-11-26T01:32:29.211Z,113.95
2022-11-26T01:33:09.496Z,111.99
2022-11-26T01:33:54.552Z,110.02
2022-11-26T01:34:39.589Z,91.36
2022-11-26T01:35:24.396Z,88.41
2022-11-26T01:36:09.515Z,87.43
2022-11-26T01:36:54.772Z,85.46
2022-11-26T01:37:39.859Z,92.34
2022-11-26T01:38:24.683Z,98.23
2022-11-26T01:39:09.615Z,99.22
2022-11-26T01:39:55.100Z,97.25
2022-11-26T01:40:39.992Z,91.36
2022-11-26T01:41:25.112Z,87.25
2022-11-26T01:42:10.077Z,83.33
2022-11-26T01:42:55.035Z,89.21
2022-11-26T01:43:40.491Z,82.52
2022-11-26T01:44:25.344Z,86.45
2022-11-26T01:45:10.396Z,85.46
2022-11-26T01:45:55.375Z,80.98
2022-11-26T01:46:40.511Z,79.57
2022-11-26T01:47:25.534Z,83.50
2022-11-26T01:48:10.412Z,83.50
2022-11-26T01:48:55.376Z,83.50
2022-11-26T01:49:40.636Z,78.59
2022-11-26T01:50:25.588Z,78.59
2022-11-26T01:51:10.847Z,81.53
2022-11-26T01:51:55.700Z,76.62
2022-11-26T01:52:40.751Z,75.64
2022-11-26T01:53:25.604Z,75.64
2022-11-26T01:54:10.968Z,80.55
2022-11-26T01:54:55.929Z,84.48
2022-11-26T01:55:40.986Z,86.27
2022-11-26T01:56:25.866Z,100.97
2022-11-26T01:57:10.692Z,103.91
2022-11-26T01:57:55.578Z,102.93
2022-11-26T01:58:41.209Z,100.97
2022-11-26T01:59:25.952Z,99.52
2022-11-26T02:00:11.014Z,102.93
2022-11-26T02:00:57.056Z,100.49
2022-11-26T02:01:41.447Z,93.13
2022-11-26T02:02:26.331Z,91.17
2022-11-26T02:03:11.341Z,89.21
2022-11-26T02:03:56.394Z,77.44
2022-11-26T02:04:41.356Z,79.03
2022-11-26T02:05:26.312Z,88.23
2022-11-26T02:06:11.560Z,91.53
2022-11-26T02:06:56.731Z,80.97
2022-11-26T02:07:42.224Z,80.97
2022-11-26T02:08:26.895Z,89.47
2022-11-26T02:09:11.999Z,89.47
2022-11-26T02:09:57.088Z,78.39
2022-11-26T02:10:42.112Z,65.74
2022-11-26T02:11:26.807Z,67.83
2022-11-26T02:12:12.120Z,81.73
2022-11-26T02:12:57.070Z,66.74
2022-11-26T02:13:42.269Z,100.66
2022-11-26T02:14:27.294Z,104.65
2022-11-26T02:15:12.450Z,118.60
2022-11-26T02:15:57.673Z,112.80
2022-11-26T02:16:42.511Z,92.77
2022-11-26T02:17:27.518Z,92.77
2022-11-26T02:18:12.696Z,102.91
2022-11-26T02:18:57.691Z,110.90
2022-11-26T02:19:42.792Z,124.84
2022-11-26T02:20:27.538Z,118.90
2022-11-26T02:21:12.596Z,115.93
2022-11-26T02:21:58.269Z,127.91
2022-11-26T02:22:42.703Z,123.89
2022-11-26T02:23:27.660Z,82.58
2022-11-26T02:24:12.721Z,147.81
2022-11-26T02:24:57.672Z,153.77
2022-11-26T02:25:42.927Z,323.59
2022-11-26T02:26:28.303Z,329.50
2022-11-26T02:27:13.970Z,322.51
2022-11-26T02:27:58.207Z,322.42
2022-11-26T02:28:42.751Z,302.36
2022-11-26T02:29:28.232Z,118.79
2022-11-26T02:30:13.200Z,112.83
2022-11-26T02:30:58.525Z,96.80
2022-11-26T02:31:43.669Z,97.85
2022-11-26T02:32:28.452Z,94.83
2022-11-26T02:33:13.386Z,103.81
2022-11-26T02:33:58.862Z,109.80
2022-11-26T02:34:44.247Z,110.80
2022-11-26T02:35:28.658Z,98.85
2022-11-26T02:36:13.617Z,90.81
2022-11-26T02:36:58.876Z,83.85
2022-11-26T02:37:43.632Z,75.89
2022-11-26T02:38:28.586Z,90.84
2022-11-26T02:39:13.859Z,93.83
2022-11-26T02:39:58.905Z,82.83
2022-11-26T02:40:43.749Z,128.57
2022-11-26T02:41:28.912Z,111.76
2022-11-26T02:42:14.171Z,96.68
2022-11-26T02:42:59.135Z,88.84
2022-11-26T02:43:44.181Z,86.79
2022-11-26T02:44:29.247Z,85.85
2022-11-26T02:45:14.137Z,78.81
2022-11-26T02:45:59.834Z,145.69
2022-11-26T02:46:44.403Z,125.69
2022-11-26T02:47:29.567Z,112.83
2022-11-26T02:48:15.137Z,113.80
2022-11-26T02:48:59.472Z,101.85
2022-11-26T02:49:44.947Z,103.87
2022-11-26T02:50:29.592Z,94.86
2022-11-26T02:51:14.641Z,81.88
2022-11-26T02:51:59.922Z,89.81
2022-11-26T02:52:44.783Z,72.89
2022-11-26T02:53:29.627Z,69.89
2022-11-26T02:54:14.664Z,71.85
2022-11-26T02:54:59.819Z,71.82
2022-11-26T02:55:45.293Z,88.66
2022-11-26T02:56:29.733Z,78.69
2022-11-26T02:57:14.995Z,70.68
2022-11-26T02:58:00.453Z,76.66
2022-11-26T02:58:45.137Z,65.61
2022-11-26T02:59:29.809Z,60.73
2022-11-26T03:00:15.426Z,80.64
2022-11-26T03:01:00.485Z,56.75
2022-11-26T03:01:45.337Z,53.72
2022-11-26T03:02:30.279Z,62.68
2022-11-26T03:03:15.353Z,72.62
2022-11-26T03:04:00.684Z,82.57
2022-11-26T03:04:45.638Z,75.61
2022-11-26T03:05:30.645Z,74.61
2022-11-26T03:06:15.670Z,59.69
2022-11-26T03:07:00.725Z,69.64
2022-11-26T03:07:45.790Z,69.64
2022-11-26T03:08:30.737Z,80.58
2022-11-26T03:09:15.940Z,69.64
2022-11-26T03:10:01.057Z,67.65
2022-11-26T03:10:45.909Z,67.65
2022-11-26T03:11:31.094Z,67.65
2022-11-26T03:12:15.901Z,67.65
2022-11-26T03:13:01.076Z,180.07
2022-11-26T03:13:46.338Z,198.97
2022-11-26T03:14:31.086Z,213.89
2022-11-26T03:15:16.243Z,207.93
2022-11-26T03:16:01.869Z,203.95
2022-11-26T03:16:46.374Z,205.41
2022-11-26T03:17:31.208Z,206.93
2022-11-26T03:18:16.571Z,193.00
2022-11-26T03:19:01.863Z,203.95
2022-11-26T03:19:46.480Z,179.61
2022-11-26T03:20:32.485Z,204.94
2022-11-26T03:21:17.288Z,194.84
2022-11-26T03:22:01.749Z,181.92
2022-11-26T03:22:46.497Z,136.19
2022-11-26T03:23:31.580Z,134.20
2022-11-26T03:24:16.979Z,112.33
2022-11-26T03:25:02.457Z,129.23
2022-11-26T03:25:46.961Z,142.16
2022-11-26T03:26:31.683Z,123.27
2022-11-26T03:27:16.839Z,113.33
2022-11-26T03:28:02.138Z,113.33
2022-11-26T03:28:46.762Z,106.37
2022-11-26T03:29:32.516Z,105.38
2022-11-26T03:30:17.370Z,110.35
2022-11-26T03:31:02.221Z,139.17
2022-11-26T03:31:47.267Z,127.88
2022-11-26T03:32:32.228Z,124.26
2022-11-26T03:33:16.978Z,154.64
2022-11-26T03:34:02.265Z,144.15
2022-11-26T03:34:47.094Z,113.33
2022-11-26T03:35:32.456Z,117.30
2022-11-26T03:36:17.517Z,118.30
2022-11-26T03:37:02.574Z,129.23
2022-11-26T03:37:47.597Z,124.90
2022-11-26T03:38:32.580Z,127.25
2022-11-26T03:39:17.967Z,113.01
2022-11-26T03:40:02.900Z,110.15
2022-11-26T03:40:47.854Z,110.15
2022-11-26T03:41:32.807Z,112.13
2022-11-26T03:42:17.790Z,105.19
2022-11-26T03:43:03.129Z,112.13
2022-11-26T03:43:48.244Z,105.19
2022-11-26T03:44:32.872Z,110.15
2022-11-26T03:45:18.088Z,114.12
2022-11-26T03:46:03.273Z,111.14
2022-11-26T03:46:48.229Z,106.18
2022-11-26T03:47:32.958Z,108.16
2022-11-26T03:48:18.323Z,107.92
2022-11-26T03:49:03.490Z,108.16
2022-11-26T03:49:48.327Z,121.06
2022-11-26T03:50:33.514Z,129.99
2022-11-26T03:51:18.340Z,127.02
2022-11-26T03:52:03.806Z,117.09
2022-11-26T03:52:48.574Z,119.08
2022-11-26T03:53:33.358Z,117.09
2022-11-26T03:54:18.567Z,114.12
2022-11-26T03:55:03.837Z,127.02
2022-11-26T03:55:48.595Z,141.90
2022-11-26T03:56:33.890Z,116.10
2022-11-26T03:57:18.888Z,116.10
2022-11-26T03:58:04.250Z,117.09
2022-11-26T03:58:49.033Z,114.12
2022-11-26T03:59:33.918Z,117.39
2022-11-26T04:00:18.950Z,120.53
2022-11-26T04:01:04.524Z,117.30
2022-11-26T04:01:49.470Z,114.41
2022-11-26T04:02:34.286Z,119.54
2022-11-26T04:03:19.120Z,107.52
2022-11-26T04:04:04.292Z,114.55
2022-11-26T04:04:49.260Z,124.52
2022-11-26T04:05:34.204Z,118.54
2022-11-26T04:06:19.571Z,117.61
2022-11-26T04:07:04.436Z,116.75
2022-11-26T04:07:49.481Z,116.82
2022-11-26T04:08:34.425Z,119.89
2022-11-26T04:09:19.227Z,118.90
2022-11-26T04:10:04.849Z,114.85
2022-11-26T04:10:49.726Z,105.78
2022-11-26T04:11:34.548Z,126.58
2022-11-26T04:12:19.567Z,127.57
2022-11-26T04:13:04.668Z,112.62
2022-11-26T04:13:49.674Z,110.63
2022-11-26T04:14:34.963Z,114.55
2022-11-26T04:15:20.035Z,113.49
2022-11-26T04:16:04.994Z,111.50
2022-11-26T04:16:50.153Z,103.53
2022-11-26T04:17:35.002Z,107.44
2022-11-26T04:18:20.000Z,107.44
2022-11-26T04:19:05.115Z,107.44
2022-11-26T04:19:50.090Z,118.39
2022-11-26T04:20:35.377Z,138.18
2022-11-26T04:21:20.495Z,85.86
2022-11-26T04:22:05.564Z,143.15
2022-11-26T04:22:50.702Z,179.93
2022-11-26T04:23:35.371Z,189.87
2022-11-26T04:24:20.610Z,188.54
2022-11-26T04:25:06.289Z,202.43
2022-11-26T04:25:51.050Z,170.50
2022-11-26T04:26:35.700Z,132.83
2022-11-26T04:27:20.856Z,128.87
2022-11-26T04:28:05.845Z,124.76
2022-11-26T04:28:50.785Z,121.46
2022-11-26T04:29:36.523Z,123.61
2022-11-26T04:30:21.171Z,123.24
2022-11-26T04:31:06.225Z,123.24
2022-11-26T04:31:50.987Z,119.81
2022-11-26T04:32:36.031Z,120.80
2022-11-26T04:33:21.398Z,119.81
2022-11-26T04:34:06.297Z,118.82
2022-11-26T04:34:51.407Z,119.81
2022-11-26T04:35:36.182Z,118.82
2022-11-26T04:36:21.519Z,122.78
2022-11-26T04:37:06.371Z,114.71
2022-11-26T04:37:51.432Z,118.66
2022-11-26T04:38:36.431Z,116.34
2022-11-26T04:39:21.659Z,118.66
2022-11-26T04:40:06.494Z,118.66
2022-11-26T04:40:51.351Z,112.57
2022-11-26T04:41:36.515Z,142.71
2022-11-26T04:42:22.002Z,150.09
2022-11-26T04:43:06.821Z,130.90
2022-11-26T04:43:51.681Z,108.62
2022-11-26T04:44:37.301Z,98.42
2022-11-26T04:45:21.906Z,97.90
2022-11-26T04:46:07.040Z,112.57
2022-11-26T04:46:52.278Z,119.81
2022-11-26T04:47:40.051Z,119.81
2022-11-26T04:48:22.342Z,109.76
2022-11-26T04:49:06.873Z,109.76
2022-11-26T04:49:52.032Z,112.57
2022-11-26T04:50:37.110Z,112.57
2022-11-26T04:51:22.048Z,103.83
2022-11-26T04:52:07.086Z,105.66
2022-11-26T04:52:52.520Z,102.10
2022-11-26T04:53:37.432Z,111.74
2022-11-26T04:54:22.461Z,108.05
2022-11-26T04:55:07.524Z,106.18
2022-11-26T04:55:52.553Z,99.23
2022-11-26T04:56:37.531Z,99.23
2022-11-26T04:57:22.788Z,96.43
2022-11-26T04:58:07.745Z,97.50
2022-11-26T04:58:52.897Z,95.51
2022-11-26T04:59:37.862Z,100.48
2022-11-26T05:00:23.062Z,104.46
2022-11-26T05:01:08.308Z,104.46
2022-11-26T05:01:53.023Z,104.46
2022-11-26T05:02:38.010Z,106.37
2022-11-26T05:03:23.447Z,95.26
2022-11-26T05:04:08.398Z,95.16
2022-11-26T05:04:53.466Z,95.26
2022-11-26T05:05:38.621Z,94.44
2022-11-26T05:06:23.284Z,92.52
2022-11-26T05:07:08.266Z,95.57
2022-11-26T05:07:53.697Z,94.63
2022-11-26T05:08:38.438Z,91.64
2022-11-26T05:09:23.704Z,95.63
2022-11-26T05:10:08.669Z,94.68
2022-11-26T05:10:53.705Z,92.69
2022-11-26T05:11:39.274Z,88.66
2022-11-26T05:12:23.712Z,78.69
2022-11-26T05:13:08.672Z,73.82
2022-11-26T05:13:54.221Z,83.72
2022-11-26T05:14:38.831Z,85.71
2022-11-26T05:15:24.070Z,85.71
2022-11-26T05:16:09.170Z,100.61
2022-11-26T05:16:54.225Z,102.66
2022-11-26T05:17:38.947Z,96.76
2022-11-26T05:18:24.104Z,86.79
2022-11-26T05:19:09.119Z,91.81
2022-11-26T05:19:54.486Z,97.76
2022-11-26T05:20:39.458Z,97.76
2022-11-26T05:21:24.494Z,120.53
2022-11-26T05:22:09.344Z,52.05
2022-11-26T05:22:54.459Z,72.54
2022-11-26T05:23:39.565Z,105.45
2022-11-26T05:24:24.742Z,89.65
2022-11-26T05:25:09.777Z,93.64
2022-11-26T05:25:54.527Z,74.75
2022-11-26T05:26:39.817Z,81.80
2022-11-26T05:27:24.762Z,71.85
2022-11-26T05:28:09.800Z,76.84
2022-11-26T05:28:54.956Z,106.78
2022-11-26T05:29:39.878Z,99.75
2022-11-26T05:30:24.865Z,101.60
2022-11-26T05:31:09.873Z,107.44
2022-11-26T05:31:55.139Z,101.48
2022-11-26T05:32:39.858Z,96.26
2022-11-26T05:33:25.217Z,32.67
2022-11-26T05:34:10.028Z,90.30
2022-11-26T05:34:59.897Z,90.46
2022-11-26T05:35:40.641Z,98.56
2022-11-26T05:36:25.629Z,102.75
2022-11-26T05:37:10.376Z,96.76
2022-11-26T05:37:55.220Z,17.45
2022-11-26T05:38:40.695Z,113.72
2022-11-26T05:39:25.688Z,100.75
2022-11-26T05:40:10.598Z,111.72
2022-11-26T05:40:55.959Z,112.62
2022-11-26T05:41:40.816Z,106.52
2022-11-26T05:42:25.888Z,108.73
2022-11-26T05:43:10.922Z,108.73
2022-11-26T05:43:55.781Z,109.63
2022-11-26T05:44:41.298Z,109.63
2022-11-26T05:45:26.212Z,110.63
2022-11-26T05:46:10.988Z,120.70
2022-11-26T05:46:56.002Z,118.60
2022-11-26T05:47:41.387Z,118.71
2022-11-26T05:48:26.317Z,119.79
2022-11-26T05:49:11.281Z,120.78
2022-11-26T05:49:56.224Z,117.82
2022-11-26T05:50:41.290Z,119.82
2022-11-26T05:51:26.688Z,102.82
2022-11-26T05:52:11.611Z,92.64
2022-11-26T05:52:56.315Z,77.74
2022-11-26T05:53:41.711Z,100.55
2022-11-26T05:54:26.465Z,104.78
2022-11-26T05:55:11.422Z,107.81
2022-11-26T05:55:56.551Z,107.77
2022-11-26T05:56:41.736Z,111.42
2022-11-26T05:57:27.012Z,110.50
2022-11-26T05:58:11.684Z,110.50
2022-11-26T05:58:57.014Z,113.41
2022-11-26T05:59:41.855Z,109.43
2022-11-26T06:00:27.021Z,111.42
2022-11-26T06:01:11.870Z,116.40
2022-11-26T06:01:57.374Z,117.39
2022-11-26T06:02:42.311Z,118.30
2022-11-26T06:03:27.576Z,112.42
2022-11-26T06:04:12.302Z,109.43
2022-11-26T06:04:57.461Z,88.48
2022-11-26T06:05:42.467Z,103.20
2022-11-26T06:06:27.781Z,110.15
2022-11-26T06:07:12.803Z,118.09
2022-11-26T06:07:57.942Z,116.84
2022-11-26T06:08:42.742Z,124.04
2022-11-26T06:09:27.931Z,127.88
2022-11-26T06:10:12.606Z,121.37
2022-11-26T06:10:57.858Z,117.39
2022-11-26T06:11:42.897Z,118.39
2022-11-26T06:12:27.626Z,123.27
2022-11-26T06:13:12.988Z,120.07
2022-11-26T06:13:58.714Z,120.07
2022-11-26T06:14:43.686Z,119.08
2022-11-26T06:15:28.049Z,121.06
2022-11-26T06:16:13.383Z,120.07
2022-11-26T06:16:58.163Z,117.09
2022-11-26T06:17:43.427Z,119.08
2022-11-26T06:18:28.273Z,117.96
2022-11-26T06:19:13.434Z,101.40
2022-11-26T06:19:58.383Z,101.40
2022-11-26T06:20:43.537Z,112.42
2022-11-26T06:21:28.507Z,112.42
2022-11-26T06:22:13.491Z,113.76
2022-11-26T06:22:59.224Z,116.61
2022-11-26T06:23:48.237Z,111.76
2022-11-26T06:24:28.924Z,112.72
2022-11-26T06:25:14.035Z,115.76
2022-11-26T06:25:59.168Z,116.75
2022-11-26T06:26:44.213Z,109.77
2022-11-26T06:27:29.052Z,103.78
2022-11-26T06:28:14.204Z,98.79
2022-11-26T06:28:59.336Z,95.76
2022-11-26T06:29:44.113Z,98.56
2022-11-26T06:30:29.074Z,101.60
2022-11-26T06:31:14.221Z,103.74
2022-11-26T06:31:59.429Z,106.74
2022-11-26T06:32:44.077Z,104.74
2022-11-26T06:33:29.512Z,99.75
2022-11-26T06:34:14.596Z,94.68
2022-11-26T06:35:00.030Z,93.69
2022-11-26T06:35:44.470Z,93.69
2022-11-26T06:36:29.931Z,93.58
2022-11-26T06:37:14.915Z,86.61
2022-11-26T06:37:59.801Z,93.58
2022-11-26T06:38:44.815Z,84.62
2022-11-26T06:39:29.958Z,93.58
2022-11-26T06:40:14.713Z,90.46
2022-11-26T06:41:00.506Z,103.47
2022-11-26T06:41:45.123Z,80.38
2022-11-26T06:42:30.279Z,93.52
2022-11-26T06:43:15.136Z,106.37
2022-11-26T06:44:00.190Z,107.36
2022-11-26T06:44:45.584Z,99.23
2022-11-26T06:45:30.609Z,92.29
2022-11-26T06:49:10.875Z,307.30
2022-11-26T06:49:55.332Z,334.67
2022-11-26T06:50:40.373Z,160.20
2022-11-26T06:51:25.426Z,179.21
2022-11-26T06:52:10.185Z,323.50
2022-11-26T06:52:55.331Z,70.99
2022-11-26T06:53:40.496Z,326.48
2022-11-26T06:54:25.649Z,329.45
2022-11-26T06:55:10.345Z,125.89
2022-11-26T06:55:55.803Z,332.08
2022-11-26T06:56:40.724Z,325.48
2022-11-26T06:57:25.901Z,328.46
2022-11-26T07:00:44.986Z,336.72
2022-11-26T07:01:54.772Z,345.11
2022-11-26T07:02:39.439Z,345.11
2022-11-26T07:03:43.293Z,335.22
2022-11-26T07:14:10.764Z,187.24
2022-11-26T07:14:55.646Z,146.92
2022-11-26T07:49:24.953Z,0.00
2022-11-26T07:50:09.778Z,145.78
2022-11-26T07:50:54.719Z,321.43
2022-11-26T07:51:39.784Z,209.56
2022-11-26T07:52:24.836Z,139.71
2022-11-26T08:09:57.112Z,109.03
2022-11-26T08:10:41.874Z,236.21
2022-11-26T08:11:27.115Z,286.29
2022-11-26T08:12:12.099Z,127.77
2022-11-26T08:12:57.133Z,121.74
2022-11-26T08:13:42.116Z,333.30
2022-11-26T08:14:53.217Z,339.29
2022-11-26T08:15:37.996Z,283.30
2022-11-26T08:16:23.713Z,298.55
2022-11-26T08:17:08.754Z,162.71
2022-11-26T08:17:53.267Z,275.76
2022-11-26T08:18:38.633Z,275.76
2022-11-26T08:19:23.376Z,317.77
2022-11-26T08:20:08.753Z,150.89
2022-11-26T08:20:53.675Z,116.92
2022-11-26T08:21:38.754Z,120.91
2022-11-26T08:22:23.767Z,336.70
2022-11-26T08:23:09.174Z,326.71
2022-11-26T08:23:53.827Z,333.71
2022-11-26T08:24:39.066Z,330.80
2022-11-26T08:25:23.745Z,328.87
2022-11-26T08:26:25.517Z,339.84
2022-11-26T08:26:56.136Z,332.76
2022-11-26T08:27:39.764Z,332.76
2022-11-26T08:28:24.214Z,325.76
2022-11-26T08:29:10.280Z,310.85
2022-11-26T08:29:54.834Z,147.91
2022-11-26T08:30:39.650Z,127.91
2022-11-26T08:31:24.925Z,323.76
2022-11-26T08:32:11.217Z,299.82
2022-11-26T08:32:57.386Z,307.88
2022-11-26T08:33:42.479Z,130.53
2022-11-26T08:34:26.370Z,320.87
2022-11-26T08:35:11.453Z,296.86
2022-11-26T08:36:06.737Z,130.92
2022-11-26T08:36:40.938Z,294.79
2022-11-26T08:37:25.022Z,158.86
2022-11-26T08:38:10.723Z,325.71
2022-11-26T08:38:55.506Z,154.80
2022-11-26T08:39:40.182Z,133.83
2022-11-26T08:40:25.701Z,279.75
2022-11-26T08:41:10.346Z,123.38
2022-11-26T08:41:56.231Z,326.71
2022-11-26T08:42:40.369Z,326.59
2022-11-26T08:43:39.585Z,332.71
2022-11-26T08:44:10.801Z,306.61
2022-11-26T08:44:55.672Z,326.59
2022-11-26T08:45:40.568Z,324.51
2022-11-26T08:46:25.968Z,329.50
2022-11-26T08:47:10.468Z,327.59
2022-11-26T08:47:55.972Z,140.82
2022-11-26T08:48:40.520Z,325.71
2022-11-26T08:49:25.557Z,326.71
2022-11-26T08:50:10.506Z,332.58
2022-11-26T08:50:55.965Z,335.70
2022-11-26T08:51:40.867Z,324.71
2022-11-26T08:52:26.103Z,307.82
2022-11-26T08:53:10.845Z,129.91
2022-11-26T08:53:56.532Z,152.89
2022-11-26T08:54:44.689Z,152.89
2022-11-26T08:55:27.070Z,322.77
2022-11-26T08:56:11.189Z,320.77
2022-11-26T08:56:56.234Z,109.93
2022-11-26T08:57:41.172Z,294.82
2022-11-26T08:58:26.491Z,307.78
2022-11-26T08:59:11.066Z,165.51
2022-11-26T08:59:56.222Z,156.89
2022-11-26T09:00:42.034Z,321.72
2022-11-26T09:01:27.388Z,132.90
2022-11-26T09:02:14.785Z,331.76
2022-11-26T09:02:56.616Z,322.77
2022-11-26T09:03:41.728Z,144.89
2022-11-26T09:04:26.908Z,153.89
2022-11-26T09:05:12.206Z,325.81
2022-11-26T09:05:57.914Z,141.92
2022-11-26T09:06:42.099Z,129.92
2022-11-26T09:07:27.569Z,154.93
2022-11-26T09:08:12.046Z,136.88
2022-11-26T09:20:54.225Z,281.06
2022-11-26T09:37:55.781Z,110.92
2022-11-26T09:38:40.678Z,184.87
2022-11-26T09:39:25.708Z,201.32
2022-11-26T09:40:10.815Z,167.65
2022-11-26T09:40:55.924Z,119.77
2022-11-26T09:41:41.179Z,119.77
2022-11-26T09:42:25.763Z,95.34
2022-11-26T09:43:13.176Z,95.34
2022-11-26T09:43:55.827Z,175.87
2022-11-26T09:44:40.907Z,222.80
2022-11-26T09:45:26.936Z,235.79
2022-11-26T09:46:11.363Z,233.70
2022-11-26T09:47:10.369Z,211.81
2022-11-26T09:47:41.652Z,117.90
2022-11-26T09:48:26.465Z,175.87
2022-11-26T09:49:11.317Z,237.83
2022-11-26T09:49:56.587Z,232.83
2022-11-26T09:50:41.119Z,134.88
2022-11-26T09:51:26.720Z,169.85
2022-11-26T09:52:11.336Z,161.92
2022-11-26T09:52:56.699Z,135.93
2022-11-26T09:53:41.568Z,160.90
2022-11-26T09:54:26.920Z,147.91
2022-11-26T09:55:11.862Z,135.92
2022-11-26T09:55:56.613Z,203.85
2022-11-26T09:56:41.692Z,136.90
2022-11-26T09:57:26.723Z,125.89
2022-11-26T09:58:11.572Z,252.82
2022-11-26T09:58:56.648Z,304.78
2022-11-26T09:59:41.797Z,311.81
2022-11-26T10:00:27.933Z,150.91
2022-11-26T10:01:12.312Z,297.82
2022-11-26T10:01:57.487Z,257.87
2022-11-26T10:02:42.205Z,289.79
2022-11-26T10:03:28.163Z,286.83
2022-11-26T10:04:12.462Z,276.84
2022-11-26T10:04:57.643Z,289.75
2022-11-26T10:05:42.043Z,102.94
2022-11-26T10:06:27.686Z,290.89
2022-11-26T10:07:12.645Z,297.88
2022-11-26T10:07:57.738Z,96.98
2022-11-26T10:08:42.792Z,163.92
2022-11-26T10:09:28.376Z,123.94
2022-11-26T10:10:12.819Z,212.90
2022-11-26T10:11:03.657Z,279.89
2022-11-26T10:11:43.229Z,142.94
2022-11-26T10:12:27.854Z,104.95
2022-11-26T10:13:19.016Z,116.93
2022-11-26T10:13:58.520Z,278.83
2022-11-26T10:14:43.131Z,158.92
2022-11-26T10:15:28.758Z,311.88
2022-11-26T10:16:14.235Z,155.92
2022-11-26T10:16:58.954Z,321.81
2022-11-26T10:17:43.250Z,286.86
2022-11-26T10:18:28.466Z,297.88
2022-11-26T10:19:01.333Z,289.86
2022-11-26T10:19:45.645Z,307.85
2022-11-26T10:20:31.303Z,318.85
2022-11-26T23:59:37.347Z,46.63
